Assumption, IL

11:00 PM CDT on October 30, 2014 (GMT -0500)
Decatur | Change Station
CLOSE
Current Station
Airport
Location: Decatur,
Elevation: 682 ft
Nearby Weather Stations
Active Advisory: Freeze Warning

Elev 682 ft 39.83 °N, 88.87 °W | Updated 6 minutes ago

Overcast
Overcast
46 °F
Feels Like 46 °F
N
0
Wind Variable Wind from North

Today
High -- | Low -- °F
--% Chance of Precip.
Yesterday
High -- | Low -- °F
Precip. -- in
7:22 AM 5:56 PM
Waxing Crescent, 51% visible
Pressure 30.07 in
Visibility 10.0 miles
Clouds Overcast 4700 ft
Dew Point 44 °F
Humidity 93%
Rainfall 0.21 in
Snow Depth Not available.
UV 0 out of 12
Pollen .30 out of 12
Air Quality Not available.
Flu Activity Not available.
METAR KDEC 310354Z AUTO 00000KT 10SM OVC047 08/07 A3006 RMK AO2 SLP182 T00780067 TSNO

More Conditions Fewer Conditions

Pressure 30.07 in
Visibility 10.0 miles
Clouds Overcast 4700 ft
Dew Point 44 °F
Humidity 93%
Rainfall 0.21 in
Snow Depth Not available.
UV 0 out of 12
Pollen .30 out of 12
Air Quality Not available.
Flu Activity Not available.
METAR KDEC 310354Z AUTO 00000KT 10SM OVC047 08/07 A3006 RMK AO2 SLP182 T00780067 TSNO

More Conditions Fewer Conditions

10-Day Weather Forecast

Almanac

Astronomy

Oct. 30, 2014 Rise Set
Actual Time
Civil Twilight
Nautical Twilight
Astronomical Twilight
Moon
Length of Visible Light
Length of Day
Tomorrow will be .
, % of the Moon is Illuminated

Today's Extremes

State Highs State Lows

Community

WunderPhotos

Upload Photos

1,766,563 photos uploaded!

WunderBlogs® & News

Nearby

Air Quality

  Air Quality AQ Index Pollutant
Not available.

Snow Depth

Station Depth Elevation

Earthquake Activity

City Distance Mag. Time & Date
Minimum magnitude displayed is 2.5.

Coastal Water Temperatures

Place Temperature

Nearby Weather Stations